createdAt,value
2023-03-07T00:01:46.254Z,97514.44
2023-03-07T00:04:13.662Z,97513.81
2023-03-07T00:06:40.380Z,97515.53
2023-03-07T00:09:07.898Z,97511.72
2023-03-07T00:11:34.513Z,97507.03
2023-03-07T00:14:01.117Z,97506.69
2023-03-07T00:16:27.897Z,97501.94
2023-03-07T00:18:55.331Z,97499.78
2023-03-07T00:21:22.885Z,97507.56
2023-03-07T00:23:52.329Z,97497.31
2023-03-07T00:26:21.039Z,97489.56
2023-03-07T00:28:49.037Z,97496.41
2023-03-07T00:31:16.106Z,97493.94
2023-03-07T00:33:42.776Z,97487.03
2023-03-07T00:36:18.305Z,97488.78
2023-03-07T00:38:45.338Z,97489.91
2023-03-07T00:41:14.718Z,97482.09
2023-03-07T00:43:41.803Z,97481.41
2023-03-07T00:46:09.288Z,97469.03
2023-03-07T00:48:38.337Z,97472.25
2023-03-07T00:51:06.747Z,97473.94
2023-03-07T00:53:33.494Z,97474.44
2023-03-07T00:56:05.984Z,97464.44
2023-03-07T00:58:35.261Z,97463.81
2023-03-07T01:01:03.055Z,97460.50
2023-03-07T01:03:30.015Z,97456.88
2023-03-07T01:05:56.679Z,97449.53
2023-03-07T01:08:24.338Z,97447.03
2023-03-07T01:10:50.980Z,97442.38
2023-03-07T01:13:19.365Z,97448.97
2023-03-07T01:15:46.297Z,97437.66
2023-03-07T01:18:12.889Z,97424.16
2023-03-07T01:20:40.008Z,97427.97
2023-03-07T01:23:06.851Z,97426.41
2023-03-07T01:25:41.384Z,97414.75
2023-03-07T01:28:08.603Z,97425.34
2023-03-07T01:30:35.255Z,97411.41
2023-03-07T01:33:03.981Z,97407.44
2023-03-07T01:35:36.707Z,97401.72
2023-03-07T01:38:03.811Z,97392.44
2023-03-07T01:40:30.408Z,97388.63
2023-03-07T01:43:42.987Z,97384.44
2023-03-07T01:46:43.131Z,97367.38
2023-03-07T01:49:30.954Z,97366.84
2023-03-07T01:52:09.690Z,97369.25
2023-03-07T01:54:40.556Z,97366.97
2023-03-07T01:57:07.761Z,97363.00
2023-03-07T01:59:38.046Z,97347.97
2023-03-07T02:02:08.230Z,97351.41
2023-03-07T02:04:41.626Z,97350.19
2023-03-07T02:07:10.631Z,97337.63
2023-03-07T02:09:38.214Z,97341.19
2023-03-07T02:12:05.169Z,97336.25
2023-03-07T02:14:31.805Z,97332.22
2023-03-07T02:16:58.699Z,97330.56
2023-03-07T02:19:48.880Z,97323.50
2023-03-07T02:22:17.985Z,97324.44
2023-03-07T02:25:42.749Z,97320.22
2023-03-07T02:28:12.276Z,97318.97
2023-03-07T02:30:39.131Z,97298.38
2023-03-07T02:33:05.772Z,97314.34
2023-03-07T02:35:32.492Z,97305.78
2023-03-07T02:38:01.570Z,97302.78
2023-03-07T02:40:30.151Z,97300.63
2023-03-07T02:42:57.718Z,97296.66
2023-03-07T02:45:26.282Z,97294.75
2023-03-07T02:47:52.925Z,97286.84
2023-03-07T02:50:19.705Z,97284.41
2023-03-07T02:52:46.328Z,97280.06
2023-03-07T02:55:13.299Z,97279.91
2023-03-07T02:57:40.079Z,97274.19
2023-03-07T03:00:08.636Z,97284.31
2023-03-07T03:02:35.518Z,97272.69
2023-03-07T03:05:02.169Z,97269.97
2023-03-07T03:07:28.828Z,97282.06
2023-03-07T03:09:55.778Z,97254.00
2023-03-07T03:12:22.371Z,97276.91
2023-03-07T03:14:49.035Z,97264.50
2023-03-07T03:17:16.569Z,97273.88
2023-03-07T03:19:43.372Z,97271.03
2023-03-07T03:22:10.095Z,97266.00
2023-03-07T03:24:40.890Z,97260.03
2023-03-07T03:27:07.961Z,97258.09
2023-03-07T03:29:34.679Z,97254.16
2023-03-07T03:32:01.798Z,97254.28
2023-03-07T03:34:28.611Z,97249.09
2023-03-07T03:36:55.233Z,97263.19
2023-03-07T03:39:21.875Z,97256.22
2023-03-07T03:41:48.536Z,97256.19
2023-03-07T03:44:15.172Z,97257.44
2023-03-07T03:46:41.852Z,97251.44
2023-03-07T03:49:08.470Z,97244.34
2023-03-07T03:51:35.067Z,97245.84
2023-03-07T03:54:01.730Z,97239.31
2023-03-07T03:56:28.456Z,97237.00
2023-03-07T03:58:56.903Z,97237.47
2023-03-07T04:01:26.161Z,97237.47
2023-03-07T04:03:55.307Z,97230.63
2023-03-07T04:06:28.798Z,97231.56
2023-03-07T04:08:55.734Z,97229.94
2023-03-07T04:11:23.744Z,97225.97
2023-03-07T04:13:50.867Z,97224.34
2023-03-07T04:16:17.998Z,97220.53
2023-03-07T04:18:44.951Z,97233.06
2023-03-07T04:21:11.870Z,97221.91
2023-03-07T04:23:38.684Z,97217.28
2023-03-07T04:26:06.830Z,97211.28
2023-03-07T04:28:45.735Z,97211.44
2023-03-07T04:31:18.524Z,97204.19
2023-03-07T04:33:45.302Z,97206.91
2023-03-07T04:36:12.639Z,97204.44
2023-03-07T04:38:40.624Z,97208.69
2023-03-07T04:41:07.856Z,97199.81
2023-03-07T04:43:34.842Z,97200.09
2023-03-07T04:46:22.527Z,97202.69
2023-03-07T04:48:58.582Z,97200.09
2023-03-07T04:51:28.412Z,97199.84
2023-03-07T04:53:55.022Z,97200.09
2023-03-07T04:56:21.662Z,97196.97
2023-03-07T04:58:48.311Z,97192.47
2023-03-07T05:01:15.239Z,97191.22
2023-03-07T05:03:41.859Z,97192.19
2023-03-07T05:06:10.668Z,97193.25
2023-03-07T05:08:37.602Z,97193.00
2023-03-07T05:11:04.355Z,97191.66
2023-03-07T05:13:31.355Z,97197.38
2023-03-07T05:15:59.365Z,97196.53
2023-03-07T05:18:27.012Z,97197.63
2023-03-07T05:20:53.657Z,97192.03
2023-03-07T05:23:20.514Z,97186.31
2023-03-07T05:25:47.290Z,97187.66
2023-03-07T05:28:14.379Z,97183.19
2023-03-07T05:30:41.067Z,97182.06
2023-03-07T05:33:07.668Z,97175.53
2023-03-07T05:35:34.981Z,97176.06
2023-03-07T05:38:01.744Z,97178.00
2023-03-07T05:40:28.368Z,97174.56
2023-03-07T05:42:55.031Z,97172.00
2023-03-07T05:45:22.180Z,97169.00
2023-03-07T05:47:48.777Z,97172.81
2023-03-07T05:50:19.235Z,97174.72
2023-03-07T05:52:45.857Z,97172.81
2023-03-07T05:55:12.407Z,97167.63
2023-03-07T05:57:39.118Z,97171.16
2023-03-07T06:00:06.880Z,97165.88
2023-03-07T06:02:33.722Z,97166.25
2023-03-07T06:05:00.326Z,97165.97
2023-03-07T06:07:27.429Z,97155.19
2023-03-07T06:09:54.484Z,97157.25
2023-03-07T06:12:21.097Z,97151.78
2023-03-07T06:14:47.666Z,97147.97
2023-03-07T06:17:14.317Z,97157.50
2023-03-07T06:19:41.122Z,97153.16
2023-03-07T06:22:09.067Z,97148.34
2023-03-07T06:24:35.742Z,97158.84
2023-03-07T06:27:02.390Z,97155.00
2023-03-07T06:29:29.134Z,97152.97
2023-03-07T06:31:55.950Z,97147.66
2023-03-07T06:34:22.616Z,97146.16
2023-03-07T06:36:49.253Z,97147.25
2023-03-07T06:39:21.533Z,97147.97
2023-03-07T06:41:51.544Z,97146.56
2023-03-07T06:44:18.277Z,97147.66
2023-03-07T06:46:45.770Z,97153.41
2023-03-07T06:49:12.674Z,97151.34
2023-03-07T06:51:40.258Z,97154.03
2023-03-07T06:54:06.939Z,97157.72
2023-03-07T06:56:34.944Z,97168.34
2023-03-07T06:59:02.046Z,97158.66
2023-03-07T07:01:28.929Z,97161.53
2023-03-07T07:03:57.045Z,97160.59
2023-03-07T07:06:23.804Z,97155.13
2023-03-07T07:08:54.494Z,97147.63
2023-03-07T07:11:21.419Z,97145.28
2023-03-07T07:13:48.221Z,97153.19
2023-03-07T07:16:14.886Z,97143.09
2023-03-07T07:18:41.519Z,97141.59
2023-03-07T07:21:08.250Z,97144.56
2023-03-07T07:23:34.946Z,97132.78
2023-03-07T07:26:01.940Z,97139.47
2023-03-07T07:28:28.954Z,97131.44
2023-03-07T07:30:55.748Z,97139.38
2023-03-07T07:33:22.336Z,97133.31
2023-03-07T07:35:48.977Z,97138.50
2023-03-07T07:38:15.618Z,97122.66
2023-03-07T07:40:42.242Z,97128.25
2023-03-07T07:43:15.370Z,97122.22
2023-03-07T07:45:42.333Z,97117.56
2023-03-07T07:48:09.238Z,97116.06
2023-03-07T07:50:35.922Z,97114.41
2023-03-07T07:53:02.691Z,97109.22
2023-03-07T07:55:29.325Z,97107.44
2023-03-07T07:57:55.992Z,97111.50
2023-03-07T08:00:22.975Z,97117.84
2023-03-07T08:02:50.639Z,97113.69
2023-03-07T08:05:18.888Z,97113.88
2023-03-07T08:07:46.007Z,97113.69
2023-03-07T08:10:17.291Z,97112.91
2023-03-07T08:12:45.114Z,97115.63
2023-03-07T08:15:12.200Z,97102.38
2023-03-07T08:17:38.954Z,97106.59
2023-03-07T08:20:10.085Z,97105.25
2023-03-07T08:22:37.429Z,97097.97
2023-03-07T08:25:05.509Z,97096.88
2023-03-07T08:27:32.309Z,97104.28
2023-03-07T08:29:59.910Z,97109.84
2023-03-07T08:32:27.336Z,97104.97
2023-03-07T08:34:54.124Z,97112.53
2023-03-07T08:37:20.902Z,97107.91
2023-03-07T08:39:47.882Z,97101.41
2023-03-07T08:42:14.596Z,97098.63
2023-03-07T08:44:41.267Z,97097.38
2023-03-07T08:47:07.861Z,97100.66
2023-03-07T08:49:34.991Z,97098.28
2023-03-07T08:52:01.619Z,97097.47
2023-03-07T08:54:28.489Z,97102.59
2023-03-07T08:56:55.357Z,97084.03
2023-03-07T08:59:22.273Z,97091.09
2023-03-07T09:01:49.523Z,97085.00
2023-03-07T09:04:16.246Z,97083.75
2023-03-07T09:06:42.856Z,97080.06
2023-03-07T09:09:09.561Z,97092.50
2023-03-07T09:11:36.674Z,97089.75
2023-03-07T09:14:03.463Z,97091.09
2023-03-07T09:16:30.105Z,97092.84
2023-03-07T09:18:56.734Z,97078.84
2023-03-07T09:21:23.783Z,97075.13
2023-03-07T09:23:50.519Z,97084.91
2023-03-07T09:26:17.303Z,97084.91
2023-03-07T09:28:44.584Z,97078.84
2023-03-07T09:31:13.277Z,97071.91
2023-03-07T09:33:40.770Z,97068.47
2023-03-07T09:36:09.846Z,97067.44
2023-03-07T09:38:36.956Z,97074.13
2023-03-07T09:41:26.508Z,97062.00
2023-03-07T09:44:18.481Z,97065.25
2023-03-07T09:47:28.826Z,97045.97
2023-03-07T09:49:56.224Z,97063.59
2023-03-07T09:52:28.775Z,97048.66
2023-03-07T09:54:59.824Z,97047.72
2023-03-07T09:57:29.100Z,97038.34
2023-03-07T09:59:58.113Z,97047.34
2023-03-07T10:02:35.213Z,97036.44
2023-03-07T10:05:28.696Z,97028.69
2023-03-07T10:07:55.651Z,97027.72
2023-03-07T10:10:25.038Z,97029.03
2023-03-07T10:13:18.223Z,97023.53
2023-03-07T10:15:51.089Z,97018.97
2023-03-07T10:18:27.866Z,97018.47
2023-03-07T10:21:13.440Z,97016.69
2023-03-07T10:24:09.416Z,97011.19
2023-03-07T10:26:42.523Z,97005.94
2023-03-07T10:29:15.686Z,97020.44
2023-03-07T10:31:47.984Z,97003.50
2023-03-07T10:34:30.688Z,97016.34
2023-03-07T10:37:09.034Z,97013.22
2023-03-07T10:40:04.802Z,97020.25
2023-03-07T10:42:35.776Z,97014.34
2023-03-07T10:45:02.905Z,97010.81
2023-03-07T10:47:29.688Z,97015.88
2023-03-07T10:50:26.757Z,97021.91
2023-03-07T10:52:56.192Z,97018.31
2023-03-07T10:55:43.261Z,97024.50
2023-03-07T10:58:36.636Z,97026.28
2023-03-07T11:01:25.664Z,97023.16
2023-03-07T11:03:59.255Z,97022.81
2023-03-07T11:06:56.351Z,97021.19
2023-03-07T11:09:27.084Z,97019.84
2023-03-07T11:12:11.156Z,97026.88
2023-03-07T11:14:48.273Z,97019.50
2023-03-07T11:17:43.992Z,97023.09
2023-03-07T11:20:31.027Z,97017.25
2023-03-07T11:23:36.776Z,97017.88
2023-03-07T11:26:21.481Z,97017.53
2023-03-07T11:28:48.362Z,97014.66
2023-03-07T11:31:43.004Z,96999.38
2023-03-07T11:34:51.748Z,97017.53
2023-03-07T11:37:39.851Z,97011.66
2023-03-07T11:40:27.529Z,97017.03
2023-03-07T11:43:22.466Z,97019.09
2023-03-07T11:46:11.696Z,97007.31
2023-03-07T11:49:24.808Z,97003.41
2023-03-07T11:52:37.614Z,97010.56
2023-03-07T11:55:38.875Z,97011.06
2023-03-07T11:58:28.832Z,97006.50
2023-03-07T12:01:38.076Z,96997.41
2023-03-07T12:04:26.713Z,97005.38
2023-03-07T12:07:18.791Z,97006.22
2023-03-07T12:10:04.574Z,96996.38
2023-03-07T12:12:56.774Z,97001.63
2023-03-07T12:16:20.004Z,96996.78
2023-03-07T12:19:01.964Z,96987.66
2023-03-07T12:21:58.764Z,96992.91
2023-03-07T12:24:28.057Z,96991.22
2023-03-07T12:27:04.135Z,96980.50
2023-03-07T12:30:02.961Z,96980.03
2023-03-07T12:32:31.435Z,96976.94
2023-03-07T12:38:12.338Z,96974.00
2023-03-07T12:40:42.753Z,96971.88
2023-03-07T12:43:22.460Z,96955.00
2023-03-07T12:45:54.199Z,96972.38
2023-03-07T12:49:01.115Z,96974.34
2023-03-07T12:51:38.550Z,96962.94
2023-03-07T12:54:15.446Z,96967.50
2023-03-07T12:56:53.522Z,96967.03
2023-03-07T12:59:23.471Z,96972.72
2023-03-07T13:02:03.564Z,96966.22
2023-03-07T13:04:33.827Z,96973.06
2023-03-07T13:07:29.988Z,96968.84
2023-03-07T13:09:58.835Z,96971.75
2023-03-07T13:12:32.645Z,96975.16
2023-03-07T13:15:07.595Z,96976.63
2023-03-07T13:17:58.510Z,96969.47
2023-03-07T13:20:38.926Z,96969.16
2023-03-07T13:23:24.723Z,96964.13
2023-03-07T13:26:02.551Z,96963.78
2023-03-07T13:28:43.949Z,96965.41
2023-03-07T13:31:39.886Z,96964.94
2023-03-07T13:34:41.705Z,96966.53
2023-03-07T13:37:45.939Z,96963.63
2023-03-07T13:40:22.705Z,96961.03
2023-03-07T13:42:49.732Z,96950.44
2023-03-07T13:45:42.368Z,96956.81
2023-03-07T13:48:12.726Z,96952.88
2023-03-07T13:50:59.318Z,96956.31
2023-03-07T13:53:46.618Z,96949.63
2023-03-07T13:56:35.569Z,96954.69
2023-03-07T13:59:34.704Z,96947.03
2023-03-07T14:02:03.498Z,96947.53
2023-03-07T14:04:50.181Z,96954.19
2023-03-07T14:07:34.306Z,96962.16
2023-03-07T14:10:23.644Z,96954.16
2023-03-07T14:13:19.451Z,96962.63
2023-03-07T14:16:07.568Z,96959.66
2023-03-07T14:19:00.826Z,96959.34
2023-03-07T14:22:08.023Z,96961.59
2023-03-07T14:25:10.118Z,96955.44
2023-03-07T14:28:00.911Z,96960.50
2023-03-07T14:30:30.474Z,96968.25
2023-03-07T14:32:58.078Z,96966.97
2023-03-07T14:35:40.047Z,96962.88
2023-03-07T14:38:08.749Z,96957.38
2023-03-07T14:41:05.801Z,96954.56
2023-03-07T14:44:12.398Z,96951.78
2023-03-07T14:47:12.230Z,96961.09
2023-03-07T14:50:07.993Z,96947.25
2023-03-07T14:52:34.875Z,96949.84
2023-03-07T14:55:03.950Z,96942.69
2023-03-07T14:57:43.530Z,96941.72
2023-03-07T15:00:32.807Z,96941.06
2023-03-07T15:03:04.740Z,96938.63
2023-03-07T15:05:36.663Z,96943.38
2023-03-07T15:08:03.485Z,96937.69
2023-03-07T15:10:50.894Z,96943.38
2023-03-07T15:13:25.229Z,96941.75
2023-03-07T15:15:58.619Z,96941.41
2023-03-07T15:18:29.604Z,96943.38
2023-03-07T15:20:57.296Z,96940.94
2023-03-07T15:23:27.781Z,96946.28
2023-03-07T15:25:58.057Z,96946.91
2023-03-07T15:28:26.825Z,96948.72
2023-03-07T15:30:53.927Z,96953.09
2023-03-07T15:33:26.264Z,96956.69
2023-03-07T15:36:31.675Z,96956.97
2023-03-07T15:39:28.876Z,96958.63
2023-03-07T15:42:04.325Z,96969.69
2023-03-07T15:44:31.194Z,96964.28
2023-03-07T15:46:59.932Z,96971.59
2023-03-07T15:49:35.253Z,96974.84
2023-03-07T15:52:02.032Z,96970.16
2023-03-07T15:54:40.697Z,96974.34
2023-03-07T15:57:34.593Z,96979.66
2023-03-07T16:00:04.886Z,96979.53
2023-03-07T16:02:46.567Z,96980.81
2023-03-07T16:05:29.287Z,96989.28
2023-03-07T16:07:57.497Z,96983.25
2023-03-07T16:10:28.115Z,96986.28
2023-03-07T16:12:54.886Z,96988.41
2023-03-07T16:15:23.232Z,96985.97
2023-03-07T16:17:56.354Z,96983.41
2023-03-07T16:20:25.774Z,96985.78
2023-03-07T16:22:52.908Z,96984.38
2023-03-07T16:25:20.889Z,96978.44
2023-03-07T16:27:52.131Z,96974.53
2023-03-07T16:30:21.901Z,96981.03
2023-03-07T16:32:48.750Z,96985.75
2023-03-07T16:35:26.762Z,96979.88
2023-03-07T16:37:54.107Z,96983.88
2023-03-07T16:40:21.420Z,96989.63
2023-03-07T16:42:50.536Z,96994.03
2023-03-07T16:45:28.338Z,96988.97
2023-03-07T16:47:57.533Z,96990.03
2023-03-07T16:50:26.799Z,96997.03
2023-03-07T16:52:53.529Z,97005.22
2023-03-07T16:55:20.492Z,96998.84
2023-03-07T16:57:50.849Z,97001.38
2023-03-07T17:00:22.083Z,97004.81
2023-03-07T17:02:49.632Z,97001.78
2023-03-07T17:05:19.510Z,97008.47
2023-03-07T17:07:46.702Z,97019.94
2023-03-07T17:10:14.193Z,97017.59
2023-03-07T17:12:41.719Z,97015.56
2023-03-07T17:15:13.010Z,97025.66
2023-03-07T17:17:39.694Z,97024.28
2023-03-07T17:20:07.070Z,97032.19
2023-03-07T17:22:34.745Z,97036.41
2023-03-07T17:25:01.486Z,97044.72
2023-03-07T17:27:28.392Z,97047.19
2023-03-07T17:29:55.356Z,97046.47
2023-03-07T17:32:22.190Z,97061.38
2023-03-07T17:34:48.876Z,97060.41
2023-03-07T17:37:16.388Z,97062.03
2023-03-07T17:39:43.786Z,97075.78
2023-03-07T17:42:11.118Z,97072.44
2023-03-07T17:44:37.846Z,97078.78
2023-03-07T17:47:04.562Z,97075.09
2023-03-07T17:49:36.459Z,97070.88
2023-03-07T17:52:04.907Z,97080.13
2023-03-07T17:54:32.229Z,97083.94
2023-03-07T17:56:58.874Z,97088.28
2023-03-07T17:59:25.493Z,97087.75
2023-03-07T18:01:52.268Z,97085.19
2023-03-07T18:04:19.245Z,97089.41
2023-03-07T18:06:45.918Z,97091.03
2023-03-07T18:09:13.668Z,97091.88
2023-03-07T18:11:40.890Z,97102.22
2023-03-07T18:14:07.695Z,97095.00
2023-03-07T18:16:34.395Z,97096.78
2023-03-07T18:19:04.094Z,97101.84
2023-03-07T18:21:31.908Z,97100.19
2023-03-07T18:23:58.587Z,97099.66
2023-03-07T18:26:25.799Z,97095.53
2023-03-07T18:28:54.005Z,97108.63
2023-03-07T18:31:25.382Z,97109.19
2023-03-07T18:33:53.783Z,97113.25
2023-03-07T18:36:22.612Z,97114.09
2023-03-07T18:38:50.301Z,97118.97
2023-03-07T18:41:21.414Z,97119.69
2023-03-07T18:43:48.533Z,97119.94
2023-03-07T18:46:19.125Z,97122.13
2023-03-07T18:48:46.024Z,97120.09
2023-03-07T18:51:16.161Z,97123.22
2023-03-07T18:53:43.327Z,97129.66
2023-03-07T18:56:17.197Z,97129.50
2023-03-07T18:58:45.221Z,97130.31
2023-03-07T19:01:24.104Z,97131.84
2023-03-07T19:03:52.616Z,97143.97
2023-03-07T19:06:21.453Z,97144.06
2023-03-07T19:08:48.755Z,97150.22
2023-03-07T19:11:16.634Z,97157.88
2023-03-07T19:13:43.952Z,97152.94
2023-03-07T19:16:22.092Z,97151.31
2023-03-07T19:18:49.730Z,97155.41
2023-03-07T19:21:19.642Z,97166.56
2023-03-07T19:23:47.295Z,97168.44
2023-03-07T19:26:16.849Z,97172.56
2023-03-07T19:28:44.060Z,97178.28
2023-03-07T19:31:13.270Z,97182.22
2023-03-07T19:33:40.374Z,97172.56
2023-03-07T19:36:09.445Z,97178.84
2023-03-07T19:38:36.576Z,97176.91
2023-03-07T19:41:05.429Z,97178.97
2023-03-07T19:43:32.903Z,97184.28
2023-03-07T19:45:59.659Z,97180.75
2023-03-07T19:48:26.923Z,97186.47
2023-03-07T19:50:54.228Z,97188.22
2023-03-07T19:53:21.587Z,97196.28
2023-03-07T19:55:48.609Z,97196.28
2023-03-07T19:58:15.953Z,97199.13
2023-03-07T20:00:44.537Z,97202.56
2023-03-07T20:03:16.573Z,97202.81
2023-03-07T20:05:45.302Z,97207.03
2023-03-07T20:08:12.139Z,97201.16
2023-03-07T20:10:39.364Z,97212.19
2023-03-07T20:13:06.665Z,97215.88
2023-03-07T20:15:34.822Z,97218.31
2023-03-07T20:18:04.589Z,97213.94
2023-03-07T20:20:31.652Z,97214.91
2023-03-07T20:22:59.455Z,97221.03
2023-03-07T20:25:30.078Z,97216.41
2023-03-07T20:27:57.017Z,97214.09
2023-03-07T20:30:23.903Z,97215.31
2023-03-07T20:32:50.712Z,97216.84
2023-03-07T20:35:17.337Z,97226.50
2023-03-07T20:37:44.130Z,97220.00
2023-03-07T20:40:11.635Z,97223.63
2023-03-07T20:42:38.345Z,97226.78
2023-03-07T20:45:05.506Z,97231.41
2023-03-07T20:47:36.400Z,97229.22
2023-03-07T20:50:03.955Z,97236.88
2023-03-07T20:52:30.726Z,97238.50
2023-03-07T20:54:57.652Z,97238.50
2023-03-07T20:57:24.730Z,97239.88
2023-03-07T20:59:51.998Z,97245.59
2023-03-07T21:02:18.900Z,97248.84
2023-03-07T21:04:46.501Z,97254.84
2023-03-07T21:07:14.612Z,97245.59
2023-03-07T21:09:41.340Z,97248.69
2023-03-07T21:12:08.945Z,97240.00
2023-03-07T21:14:35.560Z,97245.31
2023-03-07T21:17:03.883Z,97247.47
2023-03-07T21:19:30.570Z,97256.97
2023-03-07T21:21:59.140Z,97263.13
2023-03-07T21:24:25.823Z,97261.38
2023-03-07T21:26:52.836Z,97257.59
2023-03-07T21:29:19.465Z,97267.25
2023-03-07T21:31:46.217Z,97264.13
2023-03-07T21:34:14.292Z,97272.03
2023-03-07T21:36:41.109Z,97271.06
2023-03-07T21:39:10.141Z,97280.06
2023-03-07T21:41:37.001Z,97282.94
2023-03-07T21:44:04.495Z,97282.81
2023-03-07T21:46:31.306Z,97281.28
2023-03-07T21:48:59.497Z,97287.56
2023-03-07T21:51:26.162Z,97293.97
2023-03-07T21:53:52.735Z,97300.25
2023-03-07T21:56:19.519Z,97302.31
2023-03-07T21:58:50.715Z,97308.69
2023-03-07T22:01:24.236Z,97306.25
2023-03-07T22:03:55.821Z,97316.72
2023-03-07T22:06:22.490Z,97318.38
2023-03-07T22:08:49.448Z,97313.22
2023-03-07T22:11:16.101Z,97318.50
2023-03-07T22:13:43.204Z,97329.41
2023-03-07T22:16:15.115Z,97335.56
2023-03-07T22:18:41.984Z,97335.56
2023-03-07T22:21:10.234Z,97329.00
2023-03-07T22:23:37.016Z,97323.88
2023-03-07T22:26:08.623Z,97322.22
2023-03-07T22:28:35.595Z,97318.94
2023-03-07T22:31:04.709Z,97328.47
2023-03-07T22:33:31.759Z,97333.09
2023-03-07T22:35:59.525Z,97332.25
2023-03-07T22:38:26.462Z,97326.00
2023-03-07T22:40:53.119Z,97329.41
2023-03-07T22:43:19.883Z,97337.72
2023-03-07T22:45:50.931Z,97347.84
2023-03-07T22:48:17.663Z,97334.34
2023-03-07T22:50:44.579Z,97342.38
2023-03-07T22:53:11.228Z,97330.69
2023-03-07T22:55:44.548Z,97335.56
2023-03-07T22:58:11.851Z,97341.84
2023-03-07T23:00:43.611Z,97344.13
2023-03-07T23:03:10.731Z,97357.06
2023-03-07T23:05:37.823Z,97346.88
2023-03-07T23:08:05.134Z,97348.38
2023-03-07T23:10:31.991Z,97341.28
2023-03-07T23:12:58.704Z,97345.09
2023-03-07T23:15:25.864Z,97353.03
2023-03-07T23:17:52.553Z,97344.94
2023-03-07T23:20:19.901Z,97339.66
2023-03-07T23:22:46.754Z,97339.53
2023-03-07T23:25:15.158Z,97356.28
2023-03-07T23:27:42.257Z,97356.41
2023-03-07T23:30:10.077Z,97351.53
2023-03-07T23:32:36.941Z,97361.75
2023-03-07T23:35:04.320Z,97348.94
2023-03-07T23:37:30.981Z,97354.00
2023-03-07T23:39:58.680Z,97355.09
2023-03-07T23:42:25.324Z,97364.59
2023-03-07T23:44:52.000Z,97351.22
2023-03-07T23:47:18.642Z,97351.53
2023-03-07T23:49:45.248Z,97344.59
2023-03-07T23:52:12.001Z,97350.56
2023-03-07T23:54:38.791Z,97350.97
2023-03-07T23:57:05.479Z,97372.22
2023-03-07T23:59:32.102Z,97390.06
